sensor_id;sensor_type;location;lat;lon;timestamp;P1;durP1;ratioP1;P2;durP2;ratioP2
32876;SDS011;19226;51.600;8.034;2023-05-08T00:01:51;9.27;;;8.38;;
32876;SDS011;19226;51.600;8.034;2023-05-08T00:04:36;11.25;;;8.73;;
32876;SDS011;19226;51.600;8.034;2023-05-08T00:07:21;10.15;;;7.82;;
32876;SDS011;19226;51.600;8.034;2023-05-08T00:10:06;10.15;;;8.07;;
32876;SDS011;19226;51.600;8.034;2023-05-08T00:12:51;9.50;;;8.52;;
32876;SDS011;19226;51.600;8.034;2023-05-08T00:15:36;8.50;;;7.70;;
32876;SDS011;19226;51.600;8.034;2023-05-08T00:18:21;9.65;;;8.50;;
32876;SDS011;19226;51.600;8.034;2023-05-08T00:21:05;10.23;;;8.10;;
32876;SDS011;19226;51.600;8.034;2023-05-08T00:23:50;9.80;;;8.70;;
32876;SDS011;19226;51.600;8.034;2023-05-08T00:26:34;10.30;;;8.40;;
32876;SDS011;19226;51.600;8.034;2023-05-08T00:29:19;12.63;;;8.73;;
32876;SDS011;19226;51.600;8.034;2023-05-08T00:32:04;10.07;;;8.45;;
32876;SDS011;19226;51.600;8.034;2023-05-08T00:34:49;9.43;;;8.52;;
32876;SDS011;19226;51.600;8.034;2023-05-08T00:37:34;12.57;;;8.20;;
32876;SDS011;19226;51.600;8.034;2023-05-08T00:40:20;9.60;;;8.60;;
32876;SDS011;19226;51.600;8.034;2023-05-08T00:43:04;10.00;;;9.00;;
32876;SDS011;19226;51.600;8.034;2023-05-08T00:45:49;10.35;;;8.77;;
32876;SDS011;19226;51.600;8.034;2023-05-08T00:48:35;11.23;;;8.90;;
32876;SDS011;19226;51.600;8.034;2023-05-08T00:51:21;9.75;;;8.68;;
32876;SDS011;19226;51.600;8.034;2023-05-08T00:54:06;15.90;;;8.98;;
32876;SDS011;19226;51.600;8.034;2023-05-08T00:56:51;18.88;;;9.45;;
32876;SDS011;19226;51.600;8.034;2023-05-08T00:59:36;12.15;;;9.15;;
32876;SDS011;19226;51.600;8.034;2023-05-08T01:02:24;11.68;;;9.07;;
32876;SDS011;19226;51.600;8.034;2023-05-08T01:05:09;11.13;;;8.88;;
32876;SDS011;19226;51.600;8.034;2023-05-08T01:07:54;10.48;;;8.73;;
32876;SDS011;19226;51.600;8.034;2023-05-08T01:11:05;9.70;;;8.77;;
32876;SDS011;19226;51.600;8.034;2023-05-08T01:14:19;10.07;;;8.75;;
32876;SDS011;19226;51.600;8.034;2023-05-08T01:18:09;9.52;;;8.63;;
32876;SDS011;19226;51.600;8.034;2023-05-08T01:20:52;11.10;;;8.90;;
32876;SDS011;19226;51.600;8.034;2023-05-08T01:24:03;9.73;;;8.57;;
32876;SDS011;19226;51.600;8.034;2023-05-08T01:32:56;10.50;;;9.00;;
32876;SDS011;19226;51.600;8.034;2023-05-08T01:36:14;9.85;;;8.85;;
32876;SDS011;19226;51.600;8.034;2023-05-08T01:45:18;10.57;;;9.02;;
32876;SDS011;19226;51.600;8.034;2023-05-08T01:48:27;13.18;;;9.93;;
32876;SDS011;19226;51.600;8.034;2023-05-08T01:51:27;12.57;;;9.02;;
32876;SDS011;19226;51.600;8.034;2023-05-08T01:54:19;15.05;;;8.48;;
32876;SDS011;19226;51.600;8.034;2023-05-08T01:57:06;11.98;;;8.82;;
32876;SDS011;19226;51.600;8.034;2023-05-08T01:59:54;10.88;;;9.77;;
32876;SDS011;19226;51.600;8.034;2023-05-08T02:02:40;12.13;;;9.52;;
32876;SDS011;19226;51.600;8.034;2023-05-08T02:05:26;15.57;;;9.55;;
32876;SDS011;19226;51.600;8.034;2023-05-08T02:08:12;12.38;;;10.15;;
32876;SDS011;19226;51.600;8.034;2023-05-08T02:10:58;14.30;;;9.93;;
32876;SDS011;19226;51.600;8.034;2023-05-08T02:13:45;10.88;;;9.65;;
32876;SDS011;19226;51.600;8.034;2023-05-08T02:16:31;13.23;;;10.65;;
32876;SDS011;19226;51.600;8.034;2023-05-08T02:19:17;16.67;;;10.57;;
32876;SDS011;19226;51.600;8.034;2023-05-08T02:22:04;12.07;;;9.55;;
32876;SDS011;19226;51.600;8.034;2023-05-08T02:24:51;12.27;;;9.93;;
32876;SDS011;19226;51.600;8.034;2023-05-08T02:27:39;13.23;;;10.65;;
32876;SDS011;19226;51.600;8.034;2023-05-08T02:30:27;11.25;;;9.88;;
32876;SDS011;19226;51.600;8.034;2023-05-08T02:33:12;13.95;;;9.82;;
32876;SDS011;19226;51.600;8.034;2023-05-08T02:35:58;11.88;;;9.95;;
32876;SDS011;19226;51.600;8.034;2023-05-08T02:38:46;12.70;;;10.13;;
32876;SDS011;19226;51.600;8.034;2023-05-08T02:41:34;17.13;;;10.10;;
32876;SDS011;19226;51.600;8.034;2023-05-08T02:44:24;11.30;;;10.10;;
32876;SDS011;19226;51.600;8.034;2023-05-08T02:47:19;11.90;;;10.48;;
32876;SDS011;19226;51.600;8.034;2023-05-08T02:50:15;12.13;;;9.93;;
32876;SDS011;19226;51.600;8.034;2023-05-08T02:53:05;13.52;;;9.85;;
32876;SDS011;19226;51.600;8.034;2023-05-08T02:55:55;14.35;;;9.60;;
32876;SDS011;19226;51.600;8.034;2023-05-08T02:58:45;10.30;;;9.13;;
32876;SDS011;19226;51.600;8.034;2023-05-08T03:01:46;11.35;;;10.18;;
32876;SDS011;19226;51.600;8.034;2023-05-08T03:04:55;12.30;;;9.38;;
32876;SDS011;19226;51.600;8.034;2023-05-08T03:07:46;15.20;;;9.43;;
32876;SDS011;19226;51.600;8.034;2023-05-08T03:13:19;10.70;;;9.55;;
32876;SDS011;19226;51.600;8.034;2023-05-08T03:16:08;10.55;;;9.45;;
32876;SDS011;19226;51.600;8.034;2023-05-08T03:19:00;10.57;;;9.45;;
32876;SDS011;19226;51.600;8.034;2023-05-08T03:21:48;13.70;;;9.80;;
32876;SDS011;19226;51.600;8.034;2023-05-08T03:24:34;10.45;;;9.23;;
32876;SDS011;19226;51.600;8.034;2023-05-08T03:27:21;11.25;;;9.57;;
32876;SDS011;19226;51.600;8.034;2023-05-08T03:30:07;13.65;;;10.57;;
32876;SDS011;19226;51.600;8.034;2023-05-08T03:32:56;13.63;;;9.40;;
32876;SDS011;19226;51.600;8.034;2023-05-08T03:35:42;12.60;;;9.50;;
32876;SDS011;19226;51.600;8.034;2023-05-08T03:38:27;10.40;;;9.20;;
32876;SDS011;19226;51.600;8.034;2023-05-08T03:41:12;12.00;;;10.43;;
32876;SDS011;19226;51.600;8.034;2023-05-08T03:43:57;17.13;;;10.50;;
32876;SDS011;19226;51.600;8.034;2023-05-08T03:46:42;10.68;;;9.57;;
32876;SDS011;19226;51.600;8.034;2023-05-08T03:49:28;15.40;;;9.77;;
32876;SDS011;19226;51.600;8.034;2023-05-08T03:52:14;12.02;;;9.65;;
32876;SDS011;19226;51.600;8.034;2023-05-08T03:54:59;11.65;;;10.20;;
32876;SDS011;19226;51.600;8.034;2023-05-08T03:57:49;10.93;;;9.07;;
32876;SDS011;19226;51.600;8.034;2023-05-08T04:07:28;14.82;;;10.57;;
32876;SDS011;19226;51.600;8.034;2023-05-08T04:10:23;11.60;;;9.90;;
32876;SDS011;19226;51.600;8.034;2023-05-08T04:13:12;14.38;;;10.82;;
32876;SDS011;19226;51.600;8.034;2023-05-08T04:16:06;13.32;;;10.23;;
32876;SDS011;19226;51.600;8.034;2023-05-08T04:19:00;13.30;;;10.10;;
32876;SDS011;19226;51.600;8.034;2023-05-08T04:21:46;11.02;;;9.75;;
32876;SDS011;19226;51.600;8.034;2023-05-08T04:24:34;12.98;;;10.07;;
32876;SDS011;19226;51.600;8.034;2023-05-08T04:27:23;13.20;;;10.57;;
32876;SDS011;19226;51.600;8.034;2023-05-08T04:30:08;12.35;;;9.65;;
32876;SDS011;19226;51.600;8.034;2023-05-08T04:32:54;11.23;;;10.10;;
32876;SDS011;19226;51.600;8.034;2023-05-08T04:35:39;11.45;;;10.25;;
32876;SDS011;19226;51.600;8.034;2023-05-08T04:38:24;11.30;;;10.02;;
32876;SDS011;19226;51.600;8.034;2023-05-08T04:41:09;13.30;;;9.65;;
32876;SDS011;19226;51.600;8.034;2023-05-08T04:43:53;12.52;;;9.13;;
32876;SDS011;19226;51.600;8.034;2023-05-08T04:46:38;12.57;;;10.85;;
32876;SDS011;19226;51.600;8.034;2023-05-08T04:49:23;13.10;;;10.73;;
32876;SDS011;19226;51.600;8.034;2023-05-08T04:52:08;10.80;;;9.52;;
32876;SDS011;19226;51.600;8.034;2023-05-08T04:54:53;12.15;;;9.85;;
32876;SDS011;19226;51.600;8.034;2023-05-08T04:57:37;12.07;;;10.57;;
32876;SDS011;19226;51.600;8.034;2023-05-08T05:00:22;12.32;;;10.25;;
32876;SDS011;19226;51.600;8.034;2023-05-08T05:03:06;10.57;;;9.35;;
32876;SDS011;19226;51.600;8.034;2023-05-08T05:05:56;12.05;;;10.73;;
32876;SDS011;19226;51.600;8.034;2023-05-08T05:08:41;14.30;;;10.48;;
32876;SDS011;19226;51.600;8.034;2023-05-08T05:11:26;11.13;;;10.02;;
32876;SDS011;19226;51.600;8.034;2023-05-08T05:14:11;13.90;;;9.82;;
32876;SDS011;19226;51.600;8.034;2023-05-08T05:16:55;10.82;;;9.73;;
32876;SDS011;19226;51.600;8.034;2023-05-08T05:19:40;12.18;;;10.45;;
32876;SDS011;19226;51.600;8.034;2023-05-08T05:22:24;14.82;;;10.88;;
32876;SDS011;19226;51.600;8.034;2023-05-08T05:25:10;11.05;;;9.95;;
32876;SDS011;19226;51.600;8.034;2023-05-08T05:27:55;13.40;;;11.10;;
32876;SDS011;19226;51.600;8.034;2023-05-08T05:30:39;14.02;;;12.27;;
32876;SDS011;19226;51.600;8.034;2023-05-08T05:33:24;12.43;;;10.55;;
32876;SDS011;19226;51.600;8.034;2023-05-08T05:36:09;11.43;;;10.30;;
32876;SDS011;19226;51.600;8.034;2023-05-08T05:38:54;12.68;;;9.85;;
32876;SDS011;19226;51.600;8.034;2023-05-08T05:41:39;11.00;;;9.70;;
32876;SDS011;19226;51.600;8.034;2023-05-08T05:44:27;10.90;;;9.80;;
32876;SDS011;19226;51.600;8.034;2023-05-08T05:47:12;13.20;;;10.40;;
32876;SDS011;19226;51.600;8.034;2023-05-08T05:49:58;11.93;;;9.27;;
32876;SDS011;19226;51.600;8.034;2023-05-08T05:52:43;11.05;;;9.43;;
32876;SDS011;19226;51.600;8.034;2023-05-08T05:55:28;17.67;;;9.10;;
32876;SDS011;19226;51.600;8.034;2023-05-08T05:58:14;11.85;;;8.45;;
32876;SDS011;19226;51.600;8.034;2023-05-08T06:00:59;10.45;;;8.77;;
32876;SDS011;19226;51.600;8.034;2023-05-08T06:03:44;10.80;;;9.23;;
32876;SDS011;19226;51.600;8.034;2023-05-08T06:06:29;10.48;;;9.35;;
32876;SDS011;19226;51.600;8.034;2023-05-08T06:09:15;12.43;;;8.73;;
32876;SDS011;19226;51.600;8.034;2023-05-08T06:12:00;14.15;;;9.45;;
32876;SDS011;19226;51.600;8.034;2023-05-08T06:14:46;10.35;;;9.23;;
32876;SDS011;19226;51.600;8.034;2023-05-08T06:17:30;9.68;;;8.70;;
32876;SDS011;19226;51.600;8.034;2023-05-08T06:20:15;10.55;;;8.20;;
32876;SDS011;19226;51.600;8.034;2023-05-08T06:23:01;12.55;;;8.23;;
32876;SDS011;19226;51.600;8.034;2023-05-08T06:25:45;9.77;;;8.77;;
32876;SDS011;19226;51.600;8.034;2023-05-08T06:28:30;9.85;;;8.80;;
32876;SDS011;19226;51.600;8.034;2023-05-08T06:31:14;12.88;;;9.27;;
32876;SDS011;19226;51.600;8.034;2023-05-08T06:33:59;10.07;;;8.68;;
32876;SDS011;19226;51.600;8.034;2023-05-08T06:36:43;12.30;;;8.65;;
32876;SDS011;19226;51.600;8.034;2023-05-08T06:39:28;9.30;;;8.40;;
32876;SDS011;19226;51.600;8.034;2023-05-08T06:42:12;9.32;;;8.43;;
32876;SDS011;19226;51.600;8.034;2023-05-08T06:44:59;14.10;;;8.60;;
32876;SDS011;19226;51.600;8.034;2023-05-08T06:47:43;10.07;;;8.95;;
32876;SDS011;19226;51.600;8.034;2023-05-08T06:50:28;11.88;;;7.95;;
32876;SDS011;19226;51.600;8.034;2023-05-08T06:53:14;8.95;;;8.13;;
32876;SDS011;19226;51.600;8.034;2023-05-08T06:55:58;12.00;;;8.18;;
32876;SDS011;19226;51.600;8.034;2023-05-08T06:58:43;9.48;;;8.55;;
32876;SDS011;19226;51.600;8.034;2023-05-08T07:01:28;13.90;;;7.88;;
32876;SDS011;19226;51.600;8.034;2023-05-08T07:04:12;8.55;;;7.68;;
32876;SDS011;19226;51.600;8.034;2023-05-08T07:06:57;10.48;;;7.93;;
32876;SDS011;19226;51.600;8.034;2023-05-08T07:09:41;9.00;;;8.00;;
32876;SDS011;19226;51.600;8.034;2023-05-08T07:12:26;10.55;;;7.88;;
32876;SDS011;19226;51.600;8.034;2023-05-08T07:15:11;11.50;;;8.18;;
32876;SDS011;19226;51.600;8.034;2023-05-08T07:17:55;9.57;;;8.57;;
32876;SDS011;19226;51.600;8.034;2023-05-08T07:20:40;10.50;;;8.82;;
32876;SDS011;19226;51.600;8.034;2023-05-08T07:23:24;13.32;;;7.70;;
32876;SDS011;19226;51.600;8.034;2023-05-08T07:26:10;8.88;;;8.05;;
32876;SDS011;19226;51.600;8.034;2023-05-08T07:28:55;13.60;;;8.35;;
32876;SDS011;19226;51.600;8.034;2023-05-08T07:31:39;11.55;;;8.50;;
32876;SDS011;19226;51.600;8.034;2023-05-08T07:34:24;9.75;;;7.70;;
32876;SDS011;19226;51.600;8.034;2023-05-08T07:37:08;10.48;;;7.63;;
32876;SDS011;19226;51.600;8.034;2023-05-08T07:39:53;9.02;;;7.93;;
32876;SDS011;19226;51.600;8.034;2023-05-08T07:42:41;10.02;;;7.47;;
32876;SDS011;19226;51.600;8.034;2023-05-08T07:45:26;9.90;;;7.65;;
32876;SDS011;19226;51.600;8.034;2023-05-08T07:48:10;8.77;;;7.88;;
32876;SDS011;19226;51.600;8.034;2023-05-08T07:50:55;8.93;;;7.68;;
32876;SDS011;19226;51.600;8.034;2023-05-08T07:53:39;11.57;;;8.65;;
32876;SDS011;19226;51.600;8.034;2023-05-08T07:56:24;12.27;;;8.65;;
32876;SDS011;19226;51.600;8.034;2023-05-08T07:59:09;13.13;;;8.77;;
32876;SDS011;19226;51.600;8.034;2023-05-08T08:01:55;10.80;;;8.00;;
32876;SDS011;19226;51.600;8.034;2023-05-08T08:04:40;10.32;;;8.18;;
32876;SDS011;19226;51.600;8.034;2023-05-08T08:07:24;11.23;;;8.13;;
32876;SDS011;19226;51.600;8.034;2023-05-08T08:10:09;9.88;;;8.50;;
32876;SDS011;19226;51.600;8.034;2023-05-08T08:12:54;8.45;;;7.72;;
32876;SDS011;19226;51.600;8.034;2023-05-08T08:15:38;9.02;;;8.13;;
32876;SDS011;19226;51.600;8.034;2023-05-08T08:18:23;9.43;;;7.90;;
32876;SDS011;19226;51.600;8.034;2023-05-08T08:21:07;12.65;;;8.77;;
32876;SDS011;19226;51.600;8.034;2023-05-08T08:23:52;11.45;;;7.55;;
32876;SDS011;19226;51.600;8.034;2023-05-08T08:26:37;12.63;;;7.45;;
32876;SDS011;19226;51.600;8.034;2023-05-08T08:29:21;8.93;;;8.02;;
32876;SDS011;19226;51.600;8.034;2023-05-08T08:32:06;10.07;;;8.43;;
32876;SDS011;19226;51.600;8.034;2023-05-08T08:34:50;9.25;;;7.68;;
32876;SDS011;19226;51.600;8.034;2023-05-08T08:37:35;8.27;;;7.47;;
32876;SDS011;19226;51.600;8.034;2023-05-08T08:40:20;15.02;;;7.97;;
32876;SDS011;19226;51.600;8.034;2023-05-08T08:43:04;8.30;;;7.47;;
32876;SDS011;19226;51.600;8.034;2023-05-08T08:45:49;7.68;;;6.88;;
32876;SDS011;19226;51.600;8.034;2023-05-08T08:48:33;8.05;;;7.28;;
32876;SDS011;19226;51.600;8.034;2023-05-08T08:51:22;9.20;;;7.20;;
32876;SDS011;19226;51.600;8.034;2023-05-08T08:54:28;7.85;;;6.85;;
32876;SDS011;19226;51.600;8.034;2023-05-08T08:57:17;7.38;;;6.57;;
32876;SDS011;19226;51.600;8.034;2023-05-08T09:00:10;9.40;;;7.68;;
32876;SDS011;19226;51.600;8.034;2023-05-08T09:02:55;8.05;;;7.32;;
32876;SDS011;19226;51.600;8.034;2023-05-08T09:05:40;11.02;;;7.47;;
32876;SDS011;19226;51.600;8.034;2023-05-08T09:08:27;7.35;;;6.70;;
32876;SDS011;19226;51.600;8.034;2023-05-08T09:11:11;9.57;;;7.38;;
32876;SDS011;19226;51.600;8.034;2023-05-08T09:13:56;8.40;;;6.63;;
32876;SDS011;19226;51.600;8.034;2023-05-08T09:16:41;9.63;;;7.47;;
32876;SDS011;19226;51.600;8.034;2023-05-08T09:19:26;14.13;;;7.03;;
32876;SDS011;19226;51.600;8.034;2023-05-08T09:22:11;9.20;;;7.43;;
32876;SDS011;19226;51.600;8.034;2023-05-08T09:24:57;7.18;;;6.45;;
32876;SDS011;19226;51.600;8.034;2023-05-08T09:27:43;8.65;;;7.13;;
32876;SDS011;19226;51.600;8.034;2023-05-08T09:30:28;10.23;;;6.30;;
32876;SDS011;19226;51.600;8.034;2023-05-08T09:33:12;7.80;;;6.90;;
32876;SDS011;19226;51.600;8.034;2023-05-08T09:35:57;7.05;;;6.43;;
32876;SDS011;19226;51.600;8.034;2023-05-08T09:38:42;9.30;;;6.97;;
32876;SDS011;19226;51.600;8.034;2023-05-08T09:41:26;8.02;;;6.90;;
32876;SDS011;19226;51.600;8.034;2023-05-08T09:44:11;17.92;;;6.45;;
32876;SDS011;19226;51.600;8.034;2023-05-08T09:47:08;6.85;;;6.15;;
32876;SDS011;19226;51.600;8.034;2023-05-08T09:50:00;9.50;;;6.40;;
32876;SDS011;19226;51.600;8.034;2023-05-08T09:52:47;8.55;;;6.47;;
32876;SDS011;19226;51.600;8.034;2023-05-08T09:55:46;12.10;;;6.68;;
32876;SDS011;19226;51.600;8.034;2023-05-08T09:58:40;10.05;;;7.07;;
32876;SDS011;19226;51.600;8.034;2023-05-08T10:01:33;11.80;;;6.70;;
32876;SDS011;19226;51.600;8.034;2023-05-08T10:04:31;7.78;;;6.65;;
32876;SDS011;19226;51.600;8.034;2023-05-08T10:07:25;10.93;;;6.43;;
32876;SDS011;19226;51.600;8.034;2023-05-08T10:10:14;7.75;;;6.30;;
32876;SDS011;19226;51.600;8.034;2023-05-08T10:13:13;7.30;;;6.60;;
32876;SDS011;19226;51.600;8.034;2023-05-08T10:15:58;6.25;;;5.72;;
32876;SDS011;19226;51.600;8.034;2023-05-08T10:18:47;8.25;;;6.18;;
32876;SDS011;19226;51.600;8.034;2023-05-08T10:21:34;7.55;;;6.05;;
32876;SDS011;19226;51.600;8.034;2023-05-08T10:24:41;7.05;;;6.45;;
32876;SDS011;19226;51.600;8.034;2023-05-08T10:27:33;13.32;;;7.25;;
32876;SDS011;19226;51.600;8.034;2023-05-08T10:30:24;6.97;;;6.38;;
32876;SDS011;19226;51.600;8.034;2023-05-08T10:33:09;9.07;;;6.38;;
32876;SDS011;19226;51.600;8.034;2023-05-08T10:35:57;7.38;;;6.68;;
32876;SDS011;19226;51.600;8.034;2023-05-08T10:38:42;7.70;;;5.57;;
32876;SDS011;19226;51.600;8.034;2023-05-08T10:41:27;8.10;;;5.75;;
32876;SDS011;19226;51.600;8.034;2023-05-08T10:44:12;9.23;;;6.60;;
32876;SDS011;19226;51.600;8.034;2023-05-08T10:53:53;8.52;;;6.82;;
32876;SDS011;19226;51.600;8.034;2023-05-08T10:56:42;8.00;;;5.35;;
32876;SDS011;19226;51.600;8.034;2023-05-08T10:59:27;8.15;;;6.93;;
32876;SDS011;19226;51.600;8.034;2023-05-08T11:02:12;9.50;;;6.63;;
32876;SDS011;19226;51.600;8.034;2023-05-08T11:05:13;9.82;;;6.78;;
32876;SDS011;19226;51.600;8.034;2023-05-08T11:08:01;6.97;;;6.15;;
32876;SDS011;19226;51.600;8.034;2023-05-08T11:19:38;5.93;;;5.35;;
32876;SDS011;19226;51.600;8.034;2023-05-08T11:22:46;7.50;;;6.72;;
32876;SDS011;19226;51.600;8.034;2023-05-08T11:25:40;17.92;;;6.22;;
32876;SDS011;19226;51.600;8.034;2023-05-08T11:28:26;6.97;;;6.38;;
32876;SDS011;19226;51.600;8.034;2023-05-08T11:31:13;6.60;;;6.00;;
32876;SDS011;19226;51.600;8.034;2023-05-08T11:33:58;6.07;;;5.57;;
32876;SDS011;19226;51.600;8.034;2023-05-08T11:36:44;6.25;;;5.65;;
32876;SDS011;19226;51.600;8.034;2023-05-08T11:39:44;6.40;;;5.78;;
32876;SDS011;19226;51.600;8.034;2023-05-08T11:42:33;11.07;;;6.10;;
32876;SDS011;19226;51.600;8.034;2023-05-08T11:45:17;7.47;;;5.72;;
32876;SDS011;19226;51.600;8.034;2023-05-08T11:48:02;9.43;;;6.28;;
32876;SDS011;19226;51.600;8.034;2023-05-08T11:50:48;7.35;;;6.65;;
32876;SDS011;19226;51.600;8.034;2023-05-08T11:53:34;14.27;;;6.15;;
32876;SDS011;19226;51.600;8.034;2023-05-08T11:56:19;6.88;;;6.18;;
32876;SDS011;19226;51.600;8.034;2023-05-08T11:59:04;6.15;;;5.57;;
32876;SDS011;19226;51.600;8.034;2023-05-08T12:01:51;6.53;;;5.93;;
32876;SDS011;19226;51.600;8.034;2023-05-08T12:04:45;6.90;;;5.95;;
32876;SDS011;19226;51.600;8.034;2023-05-08T12:07:29;8.52;;;5.80;;
32876;SDS011;19226;51.600;8.034;2023-05-08T12:10:14;4.82;;;4.50;;
32876;SDS011;19226;51.600;8.034;2023-05-08T12:12:59;6.53;;;4.88;;
32876;SDS011;19226;51.600;8.034;2023-05-08T12:15:44;6.47;;;5.03;;
32876;SDS011;19226;51.600;8.034;2023-05-08T12:18:29;6.05;;;5.55;;
32876;SDS011;19226;51.600;8.034;2023-05-08T12:21:14;5.20;;;4.70;;
32876;SDS011;19226;51.600;8.034;2023-05-08T12:23:58;4.90;;;4.40;;
32876;SDS011;19226;51.600;8.034;2023-05-08T12:26:43;9.05;;;3.95;;
32876;SDS011;19226;51.600;8.034;2023-05-08T12:29:29;6.18;;;3.50;;
32876;SDS011;19226;51.600;8.034;2023-05-08T12:32:18;3.45;;;3.15;;
32876;SDS011;19226;51.600;8.034;2023-05-08T12:35:03;6.85;;;3.80;;
32876;SDS011;19226;51.600;8.034;2023-05-08T12:37:49;4.18;;;3.80;;
32876;SDS011;19226;51.600;8.034;2023-05-08T12:40:39;4.80;;;3.70;;
32876;SDS011;19226;51.600;8.034;2023-05-08T12:43:34;18.50;;;4.32;;
32876;SDS011;19226;51.600;8.034;2023-05-08T12:46:19;11.43;;;3.00;;
32876;SDS011;19226;51.600;8.034;2023-05-08T12:49:05;3.28;;;2.95;;
32876;SDS011;19226;51.600;8.034;2023-05-08T12:52:03;3.87;;;3.00;;
32876;SDS011;19226;51.600;8.034;2023-05-08T12:54:49;3.22;;;2.90;;
32876;SDS011;19226;51.600;8.034;2023-05-08T12:57:33;5.72;;;2.80;;
32876;SDS011;19226;51.600;8.034;2023-05-08T13:00:19;3.10;;;2.90;;
32876;SDS011;19226;51.600;8.034;2023-05-08T13:03:05;6.68;;;2.60;;
32876;SDS011;19226;51.600;8.034;2023-05-08T13:05:51;2.88;;;2.67;;
32876;SDS011;19226;51.600;8.034;2023-05-08T13:08:37;2.83;;;2.53;;
32876;SDS011;19226;51.600;8.034;2023-05-08T13:11:28;4.88;;;4.18;;
32876;SDS011;19226;51.600;8.034;2023-05-08T13:14:14;5.18;;;4.68;;
32876;SDS011;19226;51.600;8.034;2023-05-08T13:16:59;4.60;;;4.18;;
32876;SDS011;19226;51.600;8.034;2023-05-08T13:19:43;4.57;;;4.18;;
32876;SDS011;19226;51.600;8.034;2023-05-08T13:22:29;5.75;;;4.25;;
32876;SDS011;19226;51.600;8.034;2023-05-08T13:25:13;4.20;;;3.80;;
32876;SDS011;19226;51.600;8.034;2023-05-08T13:27:58;4.75;;;4.35;;
32876;SDS011;19226;51.600;8.034;2023-05-08T13:30:43;5.32;;;4.10;;
32876;SDS011;19226;51.600;8.034;2023-05-08T13:33:27;4.05;;;2.97;;
32876;SDS011;19226;51.600;8.034;2023-05-08T13:36:12;2.28;;;2.17;;
32876;SDS011;19226;51.600;8.034;2023-05-08T13:38:57;2.15;;;1.80;;
32876;SDS011;19226;51.600;8.034;2023-05-08T13:41:41;2.03;;;1.13;;
32876;SDS011;19226;51.600;8.034;2023-05-08T13:44:26;1.90;;;1.23;;
32876;SDS011;19226;51.600;8.034;2023-05-08T13:47:10;1.10;;;0.80;;
32876;SDS011;19226;51.600;8.034;2023-05-08T13:49:55;4.47;;;1.33;;
32876;SDS011;19226;51.600;8.034;2023-05-08T13:52:40;3.22;;;0.90;;
32876;SDS011;19226;51.600;8.034;2023-05-08T13:55:25;3.10;;;1.00;;
32876;SDS011;19226;51.600;8.034;2023-05-08T13:58:10;5.97;;;1.20;;
32876;SDS011;19226;51.600;8.034;2023-05-08T14:00:54;8.20;;;1.75;;
32876;SDS011;19226;51.600;8.034;2023-05-08T14:03:39;8.38;;;1.90;;
32876;SDS011;19226;51.600;8.034;2023-05-08T14:06:23;9.45;;;2.08;;
32876;SDS011;19226;51.600;8.034;2023-05-08T14:09:08;5.70;;;1.60;;
32876;SDS011;19226;51.600;8.034;2023-05-08T14:11:52;3.50;;;1.50;;
32876;SDS011;19226;51.600;8.034;2023-05-08T14:14:37;4.93;;;1.50;;
32876;SDS011;19226;51.600;8.034;2023-05-08T14:17:22;2.75;;;1.40;;
32876;SDS011;19226;51.600;8.034;2023-05-08T14:20:06;1.33;;;1.10;;
32876;SDS011;19226;51.600;8.034;2023-05-08T14:22:51;6.50;;;0.80;;
32876;SDS011;19226;51.600;8.034;2023-05-08T14:25:36;4.78;;;1.20;;
32876;SDS011;19226;51.600;8.034;2023-05-08T14:28:21;0.88;;;0.80;;
32876;SDS011;19226;51.600;8.034;2023-05-08T14:31:05;2.25;;;0.80;;
32876;SDS011;19226;51.600;8.034;2023-05-08T14:33:49;3.28;;;1.00;;
32876;SDS011;19226;51.600;8.034;2023-05-08T14:36:34;1.45;;;0.77;;
32876;SDS011;19226;51.600;8.034;2023-05-08T14:39:20;4.78;;;1.00;;
32876;SDS011;19226;51.600;8.034;2023-05-08T14:42:10;1.15;;;0.75;;
32876;SDS011;19226;51.600;8.034;2023-05-08T14:44:55;3.45;;;0.75;;
32876;SDS011;19226;51.600;8.034;2023-05-08T14:47:40;1.98;;;0.80;;
32876;SDS011;19226;51.600;8.034;2023-05-08T14:50:29;1.23;;;1.05;;
32876;SDS011;19226;51.600;8.034;2023-05-08T14:53:13;3.72;;;1.27;;
32876;SDS011;19226;51.600;8.034;2023-05-08T14:55:58;2.72;;;1.15;;
32876;SDS011;19226;51.600;8.034;2023-05-08T14:58:43;1.60;;;1.50;;
32876;SDS011;19226;51.600;8.034;2023-05-08T15:01:27;1.80;;;1.70;;
32876;SDS011;19226;51.600;8.034;2023-05-08T15:04:12;1.80;;;1.70;;
32876;SDS011;19226;51.600;8.034;2023-05-08T15:06:57;1.83;;;1.73;;
32876;SDS011;19226;51.600;8.034;2023-05-08T15:09:41;2.22;;;2.03;;
32876;SDS011;19226;51.600;8.034;2023-05-08T15:12:26;2.53;;;2.33;;
32876;SDS011;19226;51.600;8.034;2023-05-08T15:15:10;2.45;;;2.30;;
32876;SDS011;19226;51.600;8.034;2023-05-08T15:17:55;2.80;;;2.60;;
32876;SDS011;19226;51.600;8.034;2023-05-08T15:20:41;3.80;;;3.47;;
32876;SDS011;19226;51.600;8.034;2023-05-08T15:23:26;4.47;;;4.07;;
32876;SDS011;19226;51.600;8.034;2023-05-08T15:26:13;3.35;;;3.05;;
32876;SDS011;19226;51.600;8.034;2023-05-08T15:29:01;2.80;;;2.60;;
32876;SDS011;19226;51.600;8.034;2023-05-08T15:31:46;4.30;;;2.60;;
32876;SDS011;19226;51.600;8.034;2023-05-08T15:34:31;3.15;;;2.30;;
32876;SDS011;19226;51.600;8.034;2023-05-08T15:37:15;2.58;;;2.38;;
32876;SDS011;19226;51.600;8.034;2023-05-08T15:40:00;5.43;;;4.93;;
32876;SDS011;19226;51.600;8.034;2023-05-08T15:42:44;3.10;;;2.60;;
32876;SDS011;19226;51.600;8.034;2023-05-08T15:45:29;3.47;;;3.22;;
32876;SDS011;19226;51.600;8.034;2023-05-08T15:48:14;2.22;;;2.03;;
32876;SDS011;19226;51.600;8.034;2023-05-08T15:50:59;2.22;;;2.03;;
32876;SDS011;19226;51.600;8.034;2023-05-08T15:53:43;2.50;;;2.30;;
32876;SDS011;19226;51.600;8.034;2023-05-08T15:56:28;4.75;;;3.92;;
32876;SDS011;19226;51.600;8.034;2023-05-08T15:59:12;6.65;;;2.75;;
32876;SDS011;19226;51.600;8.034;2023-05-08T16:01:57;4.35;;;3.42;;
32876;SDS011;19226;51.600;8.034;2023-05-08T16:04:42;4.05;;;2.65;;
32876;SDS011;19226;51.600;8.034;2023-05-08T16:07:26;4.15;;;3.67;;
32876;SDS011;19226;51.600;8.034;2023-05-08T16:10:11;7.28;;;2.67;;
32876;SDS011;19226;51.600;8.034;2023-05-08T16:12:56;4.00;;;3.70;;
32876;SDS011;19226;51.600;8.034;2023-05-08T16:15:40;4.97;;;3.13;;
32876;SDS011;19226;51.600;8.034;2023-05-08T16:18:26;4.18;;;3.25;;
32876;SDS011;19226;51.600;8.034;2023-05-08T16:21:10;3.45;;;3.20;;
32876;SDS011;19226;51.600;8.034;2023-05-08T16:23:56;3.00;;;2.72;;
32876;SDS011;19226;51.600;8.034;2023-05-08T16:26:41;2.50;;;2.30;;
32876;SDS011;19226;51.600;8.034;2023-05-08T16:29:26;3.60;;;3.30;;
32876;SDS011;19226;51.600;8.034;2023-05-08T16:32:10;4.97;;;3.40;;
32876;SDS011;19226;51.600;8.034;2023-05-08T16:34:55;2.83;;;2.47;;
32876;SDS011;19226;51.600;8.034;2023-05-08T16:37:39;5.50;;;3.25;;
32876;SDS011;19226;51.600;8.034;2023-05-08T16:40:24;4.25;;;3.88;;
32876;SDS011;19226;51.600;8.034;2023-05-08T16:43:08;4.40;;;4.00;;
32876;SDS011;19226;51.600;8.034;2023-05-08T16:45:53;5.10;;;3.65;;
32876;SDS011;19226;51.600;8.034;2023-05-08T16:48:38;3.22;;;2.92;;
32876;SDS011;19226;51.600;8.034;2023-05-08T16:51:22;4.22;;;3.75;;
32876;SDS011;19226;51.600;8.034;2023-05-08T16:54:07;4.82;;;4.43;;
32876;SDS011;19226;51.600;8.034;2023-05-08T16:56:51;5.20;;;2.80;;
32876;SDS011;19226;51.600;8.034;2023-05-08T16:59:36;5.97;;;4.15;;
32876;SDS011;19226;51.600;8.034;2023-05-08T17:02:21;4.30;;;3.13;;
32876;SDS011;19226;51.600;8.034;2023-05-08T17:05:05;5.00;;;3.45;;
32876;SDS011;19226;51.600;8.034;2023-05-08T17:07:50;3.40;;;3.10;;
32876;SDS011;19226;51.600;8.034;2023-05-08T17:10:35;3.28;;;3.08;;
32876;SDS011;19226;51.600;8.034;2023-05-08T17:13:19;3.30;;;3.00;;
32876;SDS011;19226;51.600;8.034;2023-05-08T17:16:04;4.13;;;3.75;;